Time;durP1;ratioP1;P1;durP2;ratioP2;P2;SDS_P1;SDS_P2;PMS_P1;PMS_P2;Temp;Humidity;BMP_temperature;BMP_pressure;BME280_temperature;BME280_humidity;BME280_pressure;Samples;Min_cycle;Max_cycle;Signal;HPM_P1;HPM_P2
2022/03/22 00:01:21;;;;;;;56.50;25.90;;;;;;;4.03;48.26;102679.17;3547577;82;99163;-80
2022/03/22 00:06:22;;;;;;;60.50;27.53;;;;;;;3.99;48.41;102679.48;3564079;82;34854;-79
2022/03/22 00:11:23;;;;;;;53.80;26.03;;;;;;;3.97;48.37;102681.64;3556761;81;99037;-79
2022/03/22 00:16:24;;;;;;;54.23;26.00;;;;;;;3.94;48.64;102676.77;3561727;81;98600;-79
2022/03/22 00:21:26;;;;;;;54.83;26.07;;;;;;;3.91;48.55;102677.31;3562004;81;98846;-80
2022/03/22 00:26:27;;;;;;;53.97;27.17;;;;;;;3.88;48.79;102683.34;3563999;81;100517;-80
2022/03/22 00:31:30;;;;;;;58.60;27.10;;;;;;;3.87;48.77;102680.34;3560272;81;99048;-80
2022/03/22 00:36:32;;;;;;;53.40;25.35;;;;;;;3.83;48.95;102676.54;3561896;81;98824;-79
2022/03/22 00:41:33;;;;;;;57.83;27.15;;;;;;;3.75;49.04;102671.11;3553013;81;98435;-79
2022/03/22 00:46:34;;;;;;;49.60;24.70;;;;;;;3.67;49.08;102673.03;3555854;82;98608;-79
2022/03/22 00:51:35;;;;;;;64.17;27.13;;;;;;;3.62;49.41;102669.52;3552537;81;98858;-79
2022/03/22 00:56:36;;;;;;;58.33;26.40;;;;;;;3.57;49.50;102674.44;3558539;81;98943;-80
2022/03/22 01:01:38;;;;;;;55.37;26.20;;;;;;;3.53;49.58;102671.99;3553945;81;98080;-79
2022/03/22 01:06:39;;;;;;;56.13;26.50;;;;;;;3.53;49.59;102669.27;3560646;81;98894;-78
2022/03/22 01:11:42;;;;;;;54.60;25.57;;;;;;;3.51;49.74;102660.57;3559245;81;36036;-80
2022/03/22 01:16:42;;;;;;;70.35;38.85;;;;;;;3.46;49.78;102654.30;3552442;82;98805;-81
2022/03/22 01:21:43;;;;;;;67.17;30.53;;;;;;;3.44;49.85;102667.39;3558600;81;98743;-80
2022/03/22 01:26:44;;;;;;;68.03;30.50;;;;;;;3.45;49.88;102663.00;3553034;81;98735;-78
2022/03/22 01:31:45;;;;;;;74.92;35.60;;;;;;;3.44;49.88;102668.19;3559259;81;98884;-79
2022/03/22 01:36:46;;;;;;;66.67;35.00;;;;;;;3.40;49.75;102663.05;3556318;82;98923;-79
2022/03/22 01:41:47;;;;;;;68.80;32.87;;;;;;;3.34;49.99;102653.23;3595555;81;35489;-80
2022/03/22 01:46:51;;;;;;;75.67;37.57;;;;;;;3.27;50.14;102649.19;3591885;81;98638;-81
2022/03/22 01:51:53;;;;;;;67.27;33.43;;;;;;;3.20;50.67;102649.99;3597769;81;98962;-80
2022/03/22 01:56:54;;;;;;;65.08;30.25;;;;;;;3.11;50.75;102647.58;3591399;82;98806;-79
2022/03/22 02:07:15;;;;;;;57.58;27.80;;;;;;;2.90;51.25;102644.59;3579217;81;98819;-81
2022/03/22 02:12:16;;;;;;;58.35;25.92;;;;;;;2.81;51.39;102638.05;3599055;81;29378;-80
2022/03/22 02:17:18;;;;;;;57.13;26.93;;;;;;;2.73;51.39;102646.20;3591330;81;98827;-79
2022/03/22 02:22:24;;;;;;;68.23;31.83;;;;;;;2.64;51.75;102649.20;3597277;81;98618;-79
2022/03/22 02:27:28;;;;;;;74.53;32.05;;;;;;;2.57;51.83;102644.55;3591282;81;98856;-80
2022/03/22 02:32:28;;;;;;;71.60;31.13;;;;;;;2.49;52.03;102650.53;3597479;81;99117;-79
2022/03/22 02:37:28;;;;;;;64.60;26.77;;;;;;;2.44;51.87;102649.69;3591104;81;98544;-79
2022/03/22 02:42:30;;;;;;;58.73;27.00;;;;;;;2.37;52.39;102640.98;3565224;80;99134;-79
2022/03/22 02:47:31;;;;;;;64.50;29.80;;;;;;;2.30;52.71;102649.95;3561228;82;99037;-80
2022/03/22 02:52:32;;;;;;;63.63;29.23;;;;;;;2.26;52.56;102650.20;3564977;81;97867;-80
2022/03/22 02:57:35;;;;;;;60.73;27.47;;;;;;;2.20;52.86;102647.20;3558530;82;99338;-80
2022/03/22 03:02:49;;;;;;;65.37;27.67;;;;;;;2.16;53.00;102647.45;3568994;82;98788;-81
2022/03/22 03:07:52;;;;;;;63.28;28.90;;;;;;;2.14;52.86;102646.91;3559230;81;98845;-80
2022/03/22 03:13:03;;;;;;;59.33;28.50;;;;;;;2.12;53.22;102649.89;3564994;81;98839;-79
2022/03/22 03:18:04;;;;;;;65.55;27.75;;;;;;;2.07;53.50;102652.59;3541736;81;98774;-81
2022/03/22 03:23:05;;;;;;;57.00;26.13;;;;;;;2.04;53.52;102650.42;3564519;81;98595;-80
2022/03/22 03:28:06;;;;;;;60.60;27.10;;;;;;;2.01;53.59;102654.19;3558393;82;98723;-80
2022/03/22 03:33:07;;;;;;;54.43;25.97;;;;;;;1.96;53.68;102652.80;3564722;80;98886;-81
2022/03/22 03:38:08;;;;;;;57.67;27.10;;;;;;;1.97;53.88;102654.46;3535953;81;99278;-81
2022/03/22 03:43:09;;;;;;;59.50;27.67;;;;;;;1.97;53.89;102651.75;3559559;82;98883;-81
2022/03/22 03:48:11;;;;;;;53.53;28.03;;;;;;;1.95;54.05;102665.59;3559363;81;98503;-81
2022/03/22 03:53:12;;;;;;;56.50;28.23;;;;;;;1.94;54.13;102650.91;3547113;82;98565;-80
2022/03/22 03:58:12;;;;;;;56.77;28.20;;;;;;;1.90;54.18;102653.87;3550413;82;98677;-81
2022/03/22 04:03:14;;;;;;;55.17;24.90;;;;;;;1.93;54.39;102656.06;3556163;81;98850;-81
2022/03/22 04:08:15;;;;;;;54.67;26.00;;;;;;;1.91;54.24;102651.45;3550903;82;98822;-81
2022/03/22 04:13:16;;;;;;;57.23;27.37;;;;;;;1.89;54.32;102660.39;3558071;82;98790;-81
2022/03/22 04:18:16;;;;;;;59.13;30.00;;;;;;;1.88;54.47;102660.95;3547214;81;98417;-83
2022/03/22 04:23:17;;;;;;;63.42;31.60;;;;;;;1.84;54.39;102663.91;3559452;81;97817;-81
2022/03/22 04:33:38;;;;;;;55.83;28.55;;;;;;;1.79;54.42;102664.41;3558421;81;97952;-81
2022/03/22 04:38:40;;;;;;;56.07;27.20;;;;;;;1.74;54.63;102663.86;3559513;82;98824;-81
2022/03/22 04:43:41;;;;;;;55.40;26.13;;;;;;;1.70;54.64;102666.81;3563808;82;98822;-80
2022/03/22 04:48:42;;;;;;;54.13;27.70;;;;;;;1.69;54.83;102675.25;3565835;81;98909;-79
2022/03/22 04:59:03;;;;;;;59.13;29.65;;;;;;;1.63;54.92;102677.09;3556631;81;98755;-82
2022/03/22 05:04:05;;;;;;;75.20;34.57;;;;;;;1.60;54.98;102672.18;3563920;81;98646;-80
2022/03/22 05:09:07;;;;;;;59.53;28.15;;;;;;;1.59;54.95;102668.40;3546604;81;98912;-80
2022/03/22 05:14:08;;;;;;;53.38;27.60;;;;;;;1.59;54.82;102672.47;3565596;81;98838;-80
2022/03/22 05:19:09;;;;;;;58.38;28.92;;;;;;;1.59;54.75;102674.63;3557892;81;98891;-80
2022/03/22 05:24:11;;;;;;;55.60;27.53;;;;;;;1.59;54.83;102686.84;3565961;81;27703;-80
2022/03/22 05:29:13;;;;;;;58.65;28.47;;;;;;;1.62;54.93;102679.55;3558349;81;98826;-81
2022/03/22 05:34:14;;;;;;;55.90;28.65;;;;;;;1.65;55.08;102682.27;3567280;82;98627;-80
2022/03/22 05:39:15;;;;;;;52.23;25.50;;;;;;;1.66;55.16;102683.90;3563217;82;98726;-80
2022/03/22 05:44:17;;;;;;;59.37;31.40;;;;;;;1.71;55.11;102688.80;3614537;80;98808;-80
2022/03/22 05:49:17;;;;;;;75.33;33.97;;;;;;;1.89;55.36;102684.30;3607090;80;99188;-80
2022/03/22 05:54:19;;;;;;;65.07;33.93;;;;;;;1.89;55.36;102684.30;3605177;82;32968;-80
2022/03/22 05:59:20;;;;;;;63.53;28.83;;;;;;;2.01;55.01;102681.34;3608328;80;98758;-80
2022/03/22 06:04:21;;;;;;;62.13;27.63;;;;;;;2.19;54.84;102683.61;3613889;80;98700;-79
2022/03/22 06:09:22;;;;;;;55.33;27.33;;;;;;;2.34;54.71;102695.86;3594578;80;98830;-80
2022/03/22 06:14:23;;;;;;;56.60;28.77;;;;;;;2.44;54.80;102694.53;3603918;80;98777;-80
2022/03/22 06:19:24;;;;;;;58.27;29.20;;;;;;;2.57;54.49;102698.12;3604369;81;98829;-80
2022/03/22 06:24:25;;;;;;;58.07;29.87;;;;;;;2.71;54.55;102704.13;3615887;81;32520;-80
2022/03/22 06:29:26;;;;;;;59.42;28.10;;;;;;;3.05;54.35;102708.48;3608664;80;98794;-80
2022/03/22 06:34:29;;;;;;;61.50;28.83;;;;;;;3.24;54.13;102698.70;3611571;82;98611;-80
2022/03/22 06:39:30;;;;;;;65.92;30.00;;;;;;;3.53;53.73;102695.66;3604243;81;98851;-80
2022/03/22 06:44:37;;;;;;;59.33;30.53;;;;;;;3.82;53.14;102693.42;3561641;81;98709;-79
2022/03/22 06:49:33;;;;;;;64.17;30.50;;;;;;;4.00;53.36;102702.91;3559067;81;98694;-80
2022/03/22 06:54:34;;;;;;;68.50;32.27;;;;;;;4.21;52.99;102700.37;3562272;81;98758;-80
2022/03/22 06:59:35;;;;;;;58.87;29.00;;;;;;;4.36;52.62;102698.38;3557320;81;98960;-79
2022/03/22 07:04:37;;;;;;;64.50;29.47;;;;;;;4.57;52.20;102703.98;3554535;82;98669;-80
2022/03/22 07:09:38;;;;;;;62.63;30.80;;;;;;;4.80;51.74;102691.58;3543844;82;99195;-80
2022/03/22 07:14:40;;;;;;;65.47;30.53;;;;;;;5.08;51.20;102699.00;3557270;81;99182;-81
2022/03/22 07:19:42;;;;;;;62.03;30.83;;;;;;;5.29;50.78;102699.09;3551006;82;99225;-79
2022/03/22 07:24:43;;;;;;;55.00;27.13;;;;;;;5.59;50.02;102702.89;3564086;81;98853;-79
2022/03/22 07:29:44;;;;;;;59.17;30.53;;;;;;;5.88;49.31;102700.42;3559176;82;98589;-80
2022/03/22 07:34:45;;;;;;;71.10;31.43;;;;;;;6.02;49.28;102703.27;3560060;81;98706;-79
2022/03/22 07:39:46;;;;;;;59.63;30.60;;;;;;;6.40;48.40;102708.53;3533376;81;98936;-79
2022/03/22 07:44:47;;;;;;;53.07;27.23;;;;;;;6.59;47.84;102713.99;3553364;81;98874;-79
2022/03/22 07:55:10;;;;;;;73.20;31.95;;;;;;;7.10;46.66;102716.25;3552988;81;98902;-78
2022/03/22 08:00:11;;;;;;;58.52;29.95;;;;;;;7.30;46.03;102714.56;3549717;81;98365;-79
2022/03/22 08:05:12;;;;;;;54.70;28.63;;;;;;;7.46;45.89;102707.13;3554809;82;98662;-76
2022/03/22 08:10:14;;;;;;;50.73;27.43;;;;;;;7.62;45.88;102702.17;3550141;81;98778;-79
2022/03/22 08:15:16;;;;;;;53.57;27.90;;;;;;;7.90;45.35;102704.66;3556797;81;98762;-78
2022/03/22 08:20:18;;;;;;;51.35;28.23;;;;;;;8.15;44.92;102694.56;3556516;81;98885;-81
2022/03/22 08:25:33;;;;;;;49.58;27.30;;;;;;;8.46;44.10;102694.17;3558199;82;98870;-79
2022/03/22 08:30:36;;;;;;;50.05;28.83;;;;;;;8.80;44.08;102690.94;3554537;81;98814;-77
2022/03/22 08:35:47;;;;;;;57.95;28.15;;;;;;;9.13;43.32;102693.70;3558715;82;31828;-78
2022/03/22 08:40:49;;;;;;;52.08;28.57;;;;;;;9.45;43.40;102692.06;3551618;81;98874;-78
2022/03/22 08:45:50;;;;;;;53.33;29.75;;;;;;;9.80;41.77;102683.67;3555029;81;98703;-77
2022/03/22 08:50:51;;;;;;;53.10;28.53;;;;;;;10.15;43.00;102696.44;3548633;82;98953;-78
2022/03/22 08:55:52;;;;;;;46.30;28.17;;;;;;;10.57;41.20;102697.69;3555898;81;99226;-78
2022/03/22 09:00:54;;;;;;;51.27;28.93;;;;;;;11.11;42.37;102689.58;3537841;81;99261;-78
2022/03/22 09:06:11;;;;;;;44.80;27.47;;;;;;;11.83;41.08;102682.70;3562975;81;26689;-77
2022/03/22 09:11:13;;;;;;;44.35;25.27;;;;;;;12.75;41.28;102683.27;3536720;82;99048;-79
2022/03/22 09:16:15;;;;;;;44.63;26.02;;;;;;;13.69;40.09;102676.25;3558250;81;99709;-79
2022/03/22 09:21:16;;;;;;;48.70;27.52;;;;;;;14.49;39.26;102671.20;3542965;81;99159;-79
2022/03/22 09:26:18;;;;;;;43.93;27.20;;;;;;;15.17;38.13;102674.80;3559665;82;99109;-78
2022/03/22 09:31:23;;;;;;;45.67;26.80;;;;;;;15.88;37.64;102676.94;3542385;82;99072;-79
2022/03/22 09:36:24;;;;;;;48.10;29.63;;;;;;;16.69;37.06;102662.44;3544718;81;33797;-77
2022/03/22 09:41:27;;;;;;;42.27;25.60;;;;;;;17.18;35.33;102662.64;3541482;80;98990;-78
2022/03/22 09:46:28;;;;;;;48.10;27.35;;;;;;;17.64;35.28;102660.15;3592376;80;98219;-77
2022/03/22 09:51:45;;;;;;;42.35;27.65;;;;;;;18.25;34.11;102655.21;3590663;80;99611;-77
2022/03/22 09:56:47;;;;;;;43.70;25.83;;;;;;;18.93;33.99;102649.61;3590179;79;99114;-79
2022/03/22 10:01:48;;;;;;;44.70;24.85;;;;;;;19.27;33.82;102640.05;3598675;80;99163;-77
2022/03/22 10:06:57;;;;;;;42.80;25.17;;;;;;;19.56;30.93;102642.55;3599421;80;99275;-78
2022/03/22 10:11:58;;;;;;;46.15;24.85;;;;;;;19.69;31.54;102641.06;3616371;80;26046;-77
2022/03/22 10:17:10;;;;;;;41.08;25.15;;;;;;;19.81;30.44;102644.37;3591244;80;99057;-77
2022/03/22 10:22:11;;;;;;;48.65;26.20;;;;;;;20.43;29.46;102629.87;3597503;80;99087;-77
2022/03/22 10:27:29;;;;;;;36.33;21.20;;;;;;;20.63;29.33;102622.76;3603040;80;99157;-78
2022/03/22 10:32:34;;;;;;;31.33;19.73;;;;;;;20.91;28.71;102627.09;3626169;80;99154;-78
2022/03/22 10:37:35;;;;;;;37.37;21.90;;;;;;;21.27;28.08;102618.42;3599910;80;99248;-77
2022/03/22 10:42:39;;;;;;;37.53;20.02;;;;;;;21.04;27.77;102609.55;3603174;80;99116;-79
2022/03/22 10:47:39;;;;;;;47.43;21.45;;;;;;;21.27;25.78;102615.63;3541164;80;99100;-78
2022/03/22 10:52:51;;;;;;;40.63;23.52;;;;;;;21.69;27.73;102611.47;3573778;81;98992;-78
2022/03/22 10:57:56;;;;;;;48.00;21.97;;;;;;;21.75;26.29;102605.66;3588974;80;99044;-78
2022/03/22 11:02:57;;;;;;;;;;;;;;;21.57;25.71;102601.25;3593977;80;99174;-79
2022/03/22 11:07:58;;;;;;;35.78;22.87;;;;;;;21.45;26.30;102593.22;3571363;79;85082;-77
2022/03/22 11:13:00;;;;;;;29.98;19.90;;;;;;;21.86;26.42;102590.25;3585268;79;99213;-77
2022/03/22 11:18:03;;;;;;;34.70;20.27;;;;;;;21.57;25.98;102585.84;3584737;81;99011;-78
2022/03/22 11:23:08;;;;;;;33.55;22.20;;;;;;;21.60;26.12;102585.02;3598571;81;99061;-78
2022/03/22 11:28:13;;;;;;;40.07;21.93;;;;;;;21.53;25.54;102580.20;3553023;80;99139;-77
2022/03/22 11:38:49;;;;;;;35.65;20.95;;;;;;;21.91;26.04;102562.59;3550340;81;99181;-78
2022/03/22 11:43:50;;;;;;;31.05;19.42;;;;;;;22.01;23.90;102562.40;3551646;81;99229;-78
2022/03/22 11:48:51;;;;;;;30.12;19.92;;;;;;;21.67;25.93;102554.99;3544814;80;99194;-78
2022/03/22 11:53:52;;;;;;;29.15;18.45;;;;;;;21.47;25.09;102550.98;3557462;81;32381;-79
2022/03/22 11:58:53;;;;;;;30.80;19.82;;;;;;;21.63;25.20;102537.98;3552556;81;99521;-79
2022/03/22 12:03:54;;;;;;;37.98;20.77;;;;;;;21.82;25.88;102532.78;3568455;80;98249;-79
2022/03/22 12:08:55;;;;;;;30.43;20.75;;;;;;;21.96;26.14;102522.92;3552295;81;99216;-79
2022/03/22 12:13:56;;;;;;;33.98;18.73;;;;;;;21.82;25.41;102514.56;3595967;80;99137;-79
2022/03/22 12:19:00;;;;;;;28.90;18.40;;;;;;;21.61;25.14;102517.36;3597138;80;99272;-79
2022/03/22 12:24:06;;;;;;;38.75;19.23;;;;;;;21.29;24.20;102513.77;3598294;81;32386;-79
2022/03/22 12:29:07;;;;;;;30.45;17.75;;;;;;;20.75;24.24;102506.25;3593134;80;99112;-78
2022/03/22 12:34:08;;;;;;;27.67;18.23;;;;;;;20.75;25.48;102500.66;3549353;81;99097;-79
2022/03/22 12:39:09;;;;;;;24.27;16.32;;;;;;;20.90;26.40;102494.73;3570787;80;99268;-78
2022/03/22 12:44:11;;;;;;;24.80;16.87;;;;;;;20.72;26.32;102491.67;3595230;80;99200;-79
2022/03/22 12:49:12;;;;;;;28.98;18.02;;;;;;;20.81;25.85;102483.08;3633127;80;99441;-78
2022/03/22 12:54:17;;;;;;;28.40;17.80;;;;;;;20.54;25.25;102481.04;3632315;80;32432;-79
2022/03/22 12:59:23;;;;;;;27.80;16.95;;;;;;;20.49;26.20;102476.61;3616001;80;99035;-79
2022/03/22 13:04:32;;;;;;;23.02;14.68;;;;;;;20.61;25.54;102469.23;3623570;80;99044;-79
2022/03/22 13:15:04;;;;;;;26.42;16.37;;;;;;;20.10;26.64;102460.29;3633621;80;99135;-79
2022/03/22 13:20:25;;;;;;;22.17;15.48;;;;;;;20.14;26.13;102445.73;3640880;80;99180;-79
2022/03/22 13:25:12;;;;;;;26.45;16.93;;;;;;;19.94;25.06;102445.02;3626022;79;99140;-80
2022/03/22 13:30:20;;;;;;;45.25;17.70;;;;;;;19.72;25.87;102434.31;3628758;80;98634;-80
2022/03/22 13:35:21;;;;;;;25.17;16.10;;;;;;;19.56;23.92;102435.22;3600319;80;98777;-80
2022/03/22 13:40:22;;;;;;;24.37;15.18;;;;;;;19.34;23.98;102432.69;3593214;80;99442;-79
2022/03/22 13:45:23;;;;;;;24.45;16.35;;;;;;;19.25;25.11;102421.86;3584967;80;98348;-79
2022/03/22 13:50:29;;;;;;;26.75;17.00;;;;;;;19.40;26.68;102421.36;3531716;81;99475;-79
2022/03/22 13:55:30;;;;;;;27.93;15.23;;;;;;;19.38;24.99;102411.15;3577083;80;99134;-79
2022/03/22 14:00:35;;;;;;;25.10;14.38;;;;;;;19.15;25.01;102407.19;3582597;80;99485;-78
2022/03/22 14:05:38;;;;;;;24.63;15.48;;;;;;;18.93;25.29;102407.40;3557527;81;32412;-79
2022/03/22 14:10:43;;;;;;;25.30;15.90;;;;;;;18.87;25.27;102404.77;3555821;81;99064;-79
2022/03/22 14:15:45;;;;;;;26.37;14.85;;;;;;;18.75;25.61;102390.50;3568635;81;99288;-76
2022/03/22 14:20:47;;;;;;;21.55;13.60;;;;;;;18.72;26.22;102391.28;3549322;81;99791;-77
2022/03/22 14:25:48;;;;;;;29.52;14.70;;;;;;;18.64;24.71;102381.84;3558324;80;99157;-76
2022/03/22 14:30:50;;;;;;;21.77;14.13;;;;;;;18.46;25.98;102391.42;3558409;81;98595;-76
2022/03/22 14:35:56;;;;;;;21.95;13.30;;;;;;;18.30;25.21;102377.47;3561693;81;32383;-78
2022/03/22 14:41:22;;;;;;;29.52;13.65;;;;;;;18.17;25.42;102372.77;3556788;81;99551;-78
2022/03/22 14:46:09;;;;;;;25.90;14.63;;;;;;;17.98;25.79;102368.77;3588659;80;98370;-79
2022/03/22 14:51:10;;;;;;;30.95;13.90;;;;;;;17.75;24.84;102367.27;3585517;80;99454;-79
2022/03/22 15:01:31;;;;;;;22.77;13.07;;;;;;;17.62;26.41;102352.81;3592171;79;99138;-79
2022/03/22 15:06:33;;;;;;;24.18;13.25;;;;;;;17.47;26.73;102349.63;3632813;80;99236;-78
2022/03/22 15:11:34;;;;;;;24.12;13.80;;;;;;;17.38;26.88;102339.92;3614016;80;98495;-78
2022/03/22 15:16:35;;;;;;;31.65;14.33;;;;;;;17.28;26.89;102336.39;3620252;80;99087;-79
2022/03/22 15:21:40;;;;;;;24.07;13.40;;;;;;;17.17;26.42;102332.05;3611202;80;99609;-79
2022/03/22 15:26:41;;;;;;;24.20;14.20;;;;;;;17.07;27.09;102325.74;3588305;80;99192;-77
2022/03/22 15:31:42;;;;;;;27.82;14.80;;;;;;;16.95;26.92;102318.22;3563295;80;98367;-78
2022/03/22 15:36:43;;;;;;;24.00;14.00;;;;;;;16.87;26.89;102315.92;3640147;80;99540;-78
2022/03/22 15:41:45;;;;;;;23.85;14.18;;;;;;;16.74;26.09;102310.33;3630311;80;32211;-79
2022/03/22 15:46:48;;;;;;;23.73;14.27;;;;;;;16.59;26.14;102308.52;3580967;80;99051;-78
2022/03/22 15:51:49;;;;;;;28.17;15.75;;;;;;;16.46;26.04;102308.48;3616372;81;99563;-78
2022/03/22 15:56:50;;;;;;;26.77;15.75;;;;;;;16.35;26.19;102306.68;3609607;79;99268;-78
2022/03/22 16:01:53;;;;;;;32.50;16.85;;;;;;;16.23;26.83;102307.66;3615233;81;99134;-78
2022/03/22 16:06:54;;;;;;;30.17;16.93;;;;;;;16.15;26.62;102307.33;3591793;80;99135;-78
2022/03/22 16:11:55;;;;;;;26.15;15.00;;;;;;;16.06;27.56;102302.59;3618132;81;32958;-78
2022/03/22 16:16:58;;;;;;;28.83;16.73;;;;;;;16.01;27.95;102303.45;3608002;80;99469;-78
2022/03/22 16:21:59;;;;;;;39.90;17.98;;;;;;;15.85;27.87;102295.81;3618311;80;99068;-78
2022/03/22 16:27:04;;;;;;;30.80;16.82;;;;;;;15.71;28.76;102299.71;3606677;80;99235;-78
2022/03/22 16:32:06;;;;;;;39.10;22.25;;;;;;;15.58;28.58;102292.12;3621054;79;99148;-78
2022/03/22 16:37:07;;;;;;;37.80;21.00;;;;;;;15.49;28.42;102285.19;3608448;80;99240;-78
2022/03/22 16:42:14;;;;;;;30.70;18.55;;;;;;;15.35;28.83;102288.47;3626473;81;31560;-79
2022/03/22 16:47:17;;;;;;;36.20;19.20;;;;;;;15.25;29.45;102284.03;3517394;81;99441;-79
2022/03/22 16:52:20;;;;;;;30.35;18.17;;;;;;;15.12;30.32;102283.38;3512531;81;99076;-79
2022/03/22 16:57:21;;;;;;;29.65;17.30;;;;;;;14.95;31.05;102281.59;3512201;82;99234;-79
2022/03/22 17:02:23;;;;;;;28.23;16.30;;;;;;;14.76;32.01;102288.46;3510786;80;99163;-79
2022/03/22 17:07:24;;;;;;;31.68;16.75;;;;;;;14.53;33.73;102282.78;3511598;82;99285;-79
2022/03/22 17:12:25;;;;;;;32.40;18.20;;;;;;;14.27;34.77;102282.52;3518157;82;30660;-79
2022/03/22 17:17:26;;;;;;;31.97;17.42;;;;;;;13.97;35.97;102282.70;3511448;81;99231;-79
2022/03/22 17:22:27;;;;;;;29.90;18.33;;;;;;;13.67;36.90;102286.99;3515730;82;99116;-78
2022/03/22 17:27:28;;;;;;;31.93;17.27;;;;;;;13.42;38.99;102293.77;3511378;82;99390;-78
2022/03/22 17:32:29;;;;;;;31.03;17.73;;;;;;;13.17;39.83;102288.66;3518812;80;98498;-79
2022/03/22 17:37:31;;;;;;;36.20;21.13;;;;;;;12.98;40.18;102286.52;3513839;83;98891;-79
2022/03/22 17:42:32;;;;;;;32.87;18.43;;;;;;;12.76;40.90;102284.20;3518489;80;99636;-77
2022/03/22 17:47:33;;;;;;;34.63;20.40;;;;;;;12.50;41.79;102289.87;3596653;80;99070;-78
2022/03/22 17:52:38;;;;;;;43.87;24.77;;;;;;;12.20;41.84;102287.87;3613201;80;99090;-78
2022/03/22 17:57:42;;;;;;;45.03;23.20;;;;;;;11.96;42.57;102282.33;3613649;80;99491;-78
2022/03/22 18:02:46;;;;;;;40.58;23.45;;;;;;;11.71;42.76;102282.57;3620905;80;99364;-79
2022/03/22 18:07:48;;;;;;;50.48;26.37;;;;;;;11.44;43.29;102288.66;3615513;81;99657;-78
2022/03/22 18:12:49;;;;;;;63.40;32.05;;;;;;;11.16;43.55;102290.33;3576478;81;99112;-78
2022/03/22 18:17:55;;;;;;;71.12;33.98;;;;;;;10.87;44.18;102284.88;3608930;80;98964;-78
2022/03/22 18:22:54;;;;;;;64.53;33.78;;;;;;;10.64;44.92;102293.20;3609737;80;98182;-78
2022/03/22 18:27:56;;;;;;;71.40;35.52;;;;;;;10.40;45.63;102289.66;3607570;80;99114;-79
2022/03/22 18:32:58;;;;;;;78.15;37.20;;;;;;;10.13;45.23;102291.47;3624829;80;99172;-79
2022/03/22 18:38:01;;;;;;;85.30;38.70;;;;;;;9.88;45.95;102287.39;3600272;81;98966;-79
2022/03/22 18:43:03;;;;;;;80.22;40.48;;;;;;;9.67;46.27;102289.20;3586584;79;98905;-79
2022/03/22 18:48:07;;;;;;;79.97;38.05;;;;;;;9.45;46.63;102290.22;3608944;81;98580;-79
2022/03/22 18:53:09;;;;;;;102.65;49.80;;;;;;;9.24;46.81;102293.92;3620492;79;98742;-80
2022/03/22 18:58:12;;;;;;;106.75;49.73;;;;;;;9.01;47.10;102296.57;3628490;79;99028;-79
2022/03/22 19:03:13;;;;;;;119.02;54.88;;;;;;;8.80;47.72;102290.89;3620852;81;99073;-79
2022/03/22 19:08:14;;;;;;;101.47;46.28;;;;;;;8.62;48.20;102295.28;3591270;81;99110;-81
2022/03/22 19:13:15;;;;;;;100.07;45.37;;;;;;;8.43;48.58;102291.42;3625964;80;98245;-80
2022/03/22 19:18:17;;;;;;;92.75;42.55;;;;;;;8.25;48.80;102288.92;3619800;80;98208;-80
2022/03/22 19:23:18;;;;;;;101.17;42.83;;;;;;;8.11;48.74;102286.80;3594926;81;98735;-80
2022/03/22 19:28:21;;;;;;;75.03;36.67;;;;;;;7.96;49.33;102279.00;3581411;80;98821;-81
2022/03/22 19:33:23;;;;;;;78.93;38.33;;;;;;;7.85;50.06;102278.44;3590534;80;99438;-80
2022/03/22 19:38:33;;;;;;;82.88;39.38;;;;;;;7.68;49.92;102278.34;3571656;80;98781;-81
2022/03/22 19:43:35;;;;;;;82.80;39.85;;;;;;;7.51;50.64;102282.88;3593797;80;98717;-80
2022/03/22 19:48:37;;;;;;;89.55;41.90;;;;;;;7.32;50.69;102278.16;3635947;79;98963;-80
2022/03/22 19:53:39;;;;;;;91.67;41.33;;;;;;;7.16;50.86;102276.91;3635127;79;32018;-80
2022/03/22 19:58:47;;;;;;;90.70;40.87;;;;;;;7.03;51.91;102277.19;3631435;79;98782;-81
2022/03/22 20:03:44;;;;;;;87.50;41.70;;;;;;;6.88;52.13;102269.30;3643945;80;98082;-82
2022/03/22 20:08:48;;;;;;;87.00;40.67;;;;;;;6.77;52.52;102276.12;3644708;80;98854;-80
2022/03/22 20:13:50;;;;;;;145.02;62.78;;;;;;;6.66;52.58;102274.72;3618974;80;99306;-80
2022/03/22 20:18:51;;;;;;;130.37;58.10;;;;;;;6.50;52.58;102267.16;3642678;78;99008;-80
2022/03/22 20:23:53;;;;;;;111.80;50.30;;;;;;;6.36;53.03;102267.70;3626210;80;26019;-80
2022/03/22 20:28:54;;;;;;;97.60;46.03;;;;;;;6.21;53.28;102269.40;3650585;79;99051;-80
2022/03/22 20:33:58;;;;;;;95.90;45.07;;;;;;;6.12;54.05;102269.84;3631598;79;98876;-80
2022/03/22 20:39:01;;;;;;;91.17;42.90;;;;;;;6.01;54.41;102270.56;3605742;79;98440;-81
2022/03/22 20:44:12;;;;;;;104.20;43.80;;;;;;;5.92;54.29;102278.41;3645597;79;99285;-82
2022/03/22 20:49:10;;;;;;;78.28;38.45;;;;;;;5.87;54.12;102266.20;3578137;81;98892;-80
2022/03/22 20:54:12;;;;;;;88.93;42.03;;;;;;;5.75;54.21;102269.40;3586576;81;29025;-80
2022/03/22 20:59:14;;;;;;;88.27;40.07;;;;;;;5.65;54.89;102268.20;3590184;81;98712;-80
2022/03/22 21:04:31;;;;;;;98.33;42.90;;;;;;;5.53;55.32;102263.77;3599873;81;98667;-80
2022/03/22 21:09:24;;;;;;;97.37;45.90;;;;;;;5.45;55.35;102262.28;3588045;81;98419;-82
2022/03/22 21:14:26;;;;;;;111.73;45.70;;;;;;;5.37;55.93;102253.39;3572164;81;99415;-78
2022/03/22 21:19:27;;;;;;;107.05;47.62;;;;;;;5.31;55.80;102256.77;3551433;81;99107;-82
2022/03/22 21:24:28;;;;;;;83.47;42.30;;;;;;;5.24;55.51;102259.61;3606944;80;25800;-80
2022/03/22 21:29:31;;;;;;;88.00;44.87;;;;;;;5.13;55.83;102255.42;3599235;81;98722;-79
2022/03/22 21:34:34;;;;;;;87.17;41.23;;;;;;;5.04;56.44;102245.73;3604181;80;98726;-80
2022/03/22 21:39:35;;;;;;;81.05;39.75;;;;;;;5.00;56.12;102246.59;3575085;81;99388;-79
2022/03/22 21:44:36;;;;;;;83.23;39.30;;;;;;;4.94;56.16;102242.33;3609900;79;99490;-80
2022/03/22 21:49:37;;;;;;;72.77;36.13;;;;;;;4.88;56.37;102245.70;3630629;79;98466;-80
2022/03/22 21:54:39;;;;;;;77.13;38.50;;;;;;;4.76;56.62;102245.30;3621652;80;25831;-79
2022/03/22 21:59:40;;;;;;;83.57;40.37;;;;;;;4.68;56.96;102244.61;3634927;80;98620;-79
2022/03/22 22:04:42;;;;;;;87.07;42.83;;;;;;;4.60;57.01;102239.00;3638721;78;98876;-78
2022/03/22 22:09:43;;;;;;;73.25;38.48;;;;;;;4.52;57.27;102232.28;3633921;80;98968;-78
2022/03/22 22:14:44;;;;;;;74.20;37.57;;;;;;;4.45;57.50;102226.38;3630096;80;98962;-79
2022/03/22 22:19:47;;;;;;;80.47;39.13;;;;;;;4.37;57.64;102229.74;3630052;79;98894;-79
2022/03/22 22:24:49;;;;;;;74.55;37.53;;;;;;;4.30;57.90;102228.47;3598310;80;99128;-78
2022/03/22 22:29:51;;;;;;;77.58;37.78;;;;;;;4.22;57.76;102223.68;3648611;80;98561;-78
2022/03/22 22:34:52;;;;;;;71.23;36.13;;;;;;;4.19;58.19;102222.34;3650718;78;99156;-80
2022/03/22 22:39:53;;;;;;;80.15;40.28;;;;;;;4.07;58.40;102214.31;3629829;79;99439;-80
2022/03/22 22:44:54;;;;;;;80.90;37.13;;;;;;;4.02;58.43;102215.20;3651130;80;98879;-79
2022/03/22 22:49:55;;;;;;;74.27;39.50;;;;;;;3.98;59.09;102205.97;3607838;80;99013;-80
2022/03/22 22:54:57;;;;;;;74.00;37.63;;;;;;;3.84;59.10;102212.41;3617356;79;98827;-79
2022/03/22 22:59:58;;;;;;;71.30;36.80;;;;;;;3.77;59.67;102211.38;3605376;81;99218;-80
2022/03/22 23:05:00;;;;;;;74.03;38.20;;;;;;;3.67;59.87;102208.75;3608418;81;98676;-80
2022/03/22 23:10:10;;;;;;;71.67;39.33;;;;;;;3.60;60.26;102207.50;3606435;80;98829;-82
2022/03/22 23:15:13;;;;;;;78.90;41.18;;;;;;;3.53;60.66;102192.85;3615051;81;98889;-80
2022/03/22 23:20:14;;;;;;;83.40;42.17;;;;;;;3.47;60.53;102198.63;3611038;80;98897;-81
2022/03/22 23:25:15;;;;;;;75.50;41.97;;;;;;;3.39;60.83;102200.05;3613546;79;98884;-79
2022/03/22 23:30:16;;;;;;;79.20;41.30;;;;;;;3.31;61.78;102196.60;3608822;80;98690;-80
2022/03/22 23:35:17;;;;;;;73.37;37.30;;;;;;;3.25;61.79;102190.94;3613722;80;98919;-80
2022/03/22 23:40:18;;;;;;;79.50;38.70;;;;;;;3.19;61.44;102193.45;3594218;80;99585;-80